Time;durP1;ratioP1;P1;durP2;ratioP2;P2;SDS_P1;SDS_P2;PMS_P1;PMS_P2;Temp;Humidity;BMP_temperature;BMP_pressure;BME280_temperature;BME280_humidity;BME280_pressure;Samples;Min_cycle;Max_cycle;Signal;HPM_P1;HPM_P2
2023/08/28 00:01:41;;;;;;;;;;;;;;;16.63;53.44;100371.31;5056992;28;1182;-58
2023/08/28 00:04:06;;;;;;;;;;;;;;;16.54;53.60;100360.13;5075673;28;898;-58
2023/08/28 00:06:32;;;;;;;;;;;;;;;16.66;53.08;100360.63;5077822;28;1166;-58
2023/08/28 00:08:57;;;;;;;;;;;;;;;16.48;53.26;100351.09;5071608;28;1186;-58
2023/08/28 00:11:23;;;;;;;;;;;;;;;16.51;53.28;100357.94;5073454;28;1972;-57
2023/08/28 00:13:48;;;;;;;;;;;;;;;16.52;53.44;100352.19;5072421;28;1121;-58
2023/08/28 00:16:14;;;;;;;;;;;;;;;16.43;53.22;100348.38;5076405;28;932;-58
2023/08/28 00:18:39;;;;;;;;;;;;;;;16.48;53.14;100348.38;5059332;28;1245;-57
2023/08/28 00:21:05;;;;;;;;;;;;;;;16.45;53.51;100345.34;5060051;28;1079;-59
2023/08/28 00:23:33;;;;;;;;;;;;;;;16.41;53.51;100340.44;5071750;28;1233;-59
2023/08/28 00:25:59;;;;;;;;;;;;;;;16.39;53.38;100342.63;5059152;28;1477;-59
2023/08/28 00:28:24;;;;;;;;;;;;;;;17.46;54.51;100336.66;5052782;28;895;-58
2023/08/28 00:30:50;;;;;;;;;;;;;;;17.30;54.80;100340.66;5072678;28;1024;-59
2023/08/28 00:33:15;;;;;;;;;;;;;;;16.97;55.09;100341.19;5048358;28;1984;-58
2023/08/28 00:35:42;;;;;;;;;;;;;;;16.91;54.49;100331.34;5065644;28;1106;-59
2023/08/28 00:38:09;;;;;;;;;;;;;;;16.79;54.26;100334.44;5061297;28;1308;-59
2023/08/28 00:40:38;;;;;;;;;;;;;;;16.77;54.36;100337.47;5077510;28;885;-58
2023/08/28 00:43:04;;;;;;;;;;;;;;;16.72;53.93;100337.50;5048922;28;1147;-58
2023/08/28 00:45:29;;;;;;;;;;;;;;;16.65;53.93;100339.75;5047831;28;1139;-58
2023/08/28 00:47:55;;;;;;;;;;;;;;;16.66;53.90;100341.41;5053034;28;1175;-58
2023/08/28 00:50:20;;;;;;;;;;;;;;;16.67;53.87;100340.25;5054742;28;1174;-59
2023/08/28 00:52:46;;;;;;;;;;;;;;;16.70;53.50;100336.13;5060429;28;1890;-59
2023/08/28 00:55:11;;;;;;;;;;;;;;;16.58;53.42;100339.25;5078413;28;1122;-59
2023/08/28 00:57:37;;;;;;;;;;;;;;;16.57;53.66;100346.66;5053056;28;1074;-59
2023/08/28 01:00:05;;;;;;;;;;;;;;;16.55;53.59;100339.78;5059618;28;1075;-59
2023/08/28 01:02:30;;;;;;;;;;;;;;;16.55;53.35;100342.53;5070774;28;1115;-58
2023/08/28 01:04:56;;;;;;;;;;;;;;;16.52;53.56;100340.38;5078668;28;1047;-59
2023/08/28 01:07:23;;;;;;;;;;;;;;;16.52;53.31;100341.22;5052652;28;1309;-59
2023/08/28 01:10:09;;;;;;;;;;;;;;;16.45;53.59;100339.88;5071397;28;1418;-59
2023/08/28 01:12:38;;;;;;;;;;;;;;;16.41;53.43;100345.09;5040470;28;1971;-59
2023/08/28 01:15:04;;;;;;;;;;;;;;;16.49;53.48;100351.91;5044808;28;1102;-59
2023/08/28 01:17:30;;;;;;;;;;;;;;;16.84;54.12;100348.09;5077704;28;1121;-59
2023/08/28 01:19:56;;;;;;;;;;;;;;;17.50;54.49;100354.19;5056030;28;1059;-59
2023/08/28 01:22:31;;;;;;;;;;;;;;;17.04;55.03;100360.06;5051132;28;1136;-59
2023/08/28 01:25:23;;;;;;;;;;;;;;;16.93;54.44;100362.09;5077382;28;1129;-59
2023/08/28 01:27:49;;;;;;;;;;;;;;;16.80;54.42;100357.22;5073142;28;1087;-59
2023/08/28 01:30:15;;;;;;;;;;;;;;;16.76;54.21;100352.28;5060072;28;1158;-59
2023/08/28 01:32:41;;;;;;;;;;;;;;;16.72;54.16;100356.72;5064316;28;1915;-59
2023/08/28 01:35:09;;;;;;;;;;;;;;;16.66;53.91;100357.03;5050735;28;1151;-59
2023/08/28 01:37:44;;;;;;;;;;;;;;;16.62;53.82;100348.56;5039531;28;1227;-59
2023/08/28 01:40:09;;;;;;;;;;;;;;;16.64;53.80;100351.00;5077562;28;857;-59
2023/08/28 01:42:35;;;;;;;;;;;;;;;16.58;53.87;100361.22;5043270;28;1111;-59
2023/08/28 01:45:01;;;;;;;;;;;;;;;16.52;53.67;100348.59;5059750;28;1363;-59
2023/08/28 01:47:26;;;;;;;;;;;;;;;16.54;53.51;100358.19;5060661;28;1213;-59
2023/08/28 01:49:53;;;;;;;;;;;;;;;16.53;53.52;100353.81;5040157;28;1139;-60
2023/08/28 01:52:19;;;;;;;;;;;;;;;16.56;53.29;100347.78;5044013;28;1910;-59
2023/08/28 01:54:44;;;;;;;;;;;;;;;16.50;53.30;100342.59;5050331;28;1179;-59
2023/08/28 01:57:10;;;;;;;;;;;;;;;16.53;53.16;100350.25;5059448;28;1178;-59
2023/08/28 01:59:35;;;;;;;;;;;;;;;16.55;53.36;100345.28;5049228;28;1837;-59
2023/08/28 02:02:01;;;;;;;;;;;;;;;16.45;53.56;100345.34;5043041;28;1207;-59
2023/08/28 02:04:26;;;;;;;;;;;;;;;16.43;53.51;100351.94;5076932;28;899;-59
2023/08/28 02:06:52;;;;;;;;;;;;;;;16.46;53.12;100352.50;5042620;28;1354;-59
2023/08/28 02:09:17;;;;;;;;;;;;;;;16.44;53.38;100355.53;5049782;28;1197;-59
2023/08/28 02:11:45;;;;;;;;;;;;;;;17.49;54.34;100355.31;5063500;28;1909;-59
2023/08/28 02:14:10;;;;;;;;;;;;;;;17.08;54.93;100361.97;5048665;28;1505;-59
2023/08/28 02:16:39;;;;;;;;;;;;;;;16.83;54.94;100356.63;5051814;28;1181;-59
2023/08/28 02:19:05;;;;;;;;;;;;;;;16.77;54.62;100348.44;5066832;28;1039;-59
2023/08/28 02:21:30;;;;;;;;;;;;;;;16.70;54.51;100352.59;5052398;28;1122;-59
2023/08/28 02:23:56;;;;;;;;;;;;;;;16.67;54.23;100350.44;5039170;28;1233;-59
2023/08/28 02:26:21;;;;;;;;;;;;;;;16.65;54.29;100347.97;5060473;28;1055;-59
2023/08/28 02:28:47;;;;;;;;;;;;;;;16.64;53.73;100343.59;5076225;28;848;-59
2023/08/28 02:31:12;;;;;;;;;;;;;;;16.58;53.80;100340.06;5072808;28;1050;-59
2023/08/28 02:33:38;;;;;;;;;;;;;;;16.59;53.41;100344.44;5057335;28;1983;-59
2023/08/28 02:36:04;;;;;;;;;;;;;;;16.60;53.54;100342.50;5070048;28;1075;-59
2023/08/28 02:38:29;;;;;;;;;;;;;;;16.55;53.51;100345.28;5056871;28;1059;-59
2023/08/28 02:41:01;;;;;;;;;;;;;;;16.45;53.67;100345.34;5055243;28;1276;-59
2023/08/28 02:43:26;;;;;;;;;;;;;;;16.52;53.35;100351.34;5065751;28;1082;-59
2023/08/28 02:45:52;;;;;;;;;;;;;;;17.52;54.66;100346.47;5069539;28;1075;-59
2023/08/28 02:48:18;;;;;;;;;;;;;;;17.27;54.96;100345.59;5039276;28;1196;-59
2023/08/28 02:50:43;;;;;;;;;;;;;;;17.02;54.90;100349.38;5056465;28;1098;-59
2023/08/28 02:53:08;;;;;;;;;;;;;;;16.89;54.57;100345.38;5060764;28;1975;-59
2023/08/28 02:55:37;;;;;;;;;;;;;;;16.82;54.24;100349.53;5043148;28;1259;-59
2023/08/28 02:58:04;;;;;;;;;;;;;;;16.82;54.15;100355.00;5058900;28;1190;-58
2023/08/28 03:00:29;;;;;;;;;;;;;;;16.74;53.89;100359.97;5057657;28;1119;-59
2023/08/28 03:02:55;;;;;;;;;;;;;;;16.71;53.81;100349.56;5056688;28;1127;-59
2023/08/28 03:05:20;;;;;;;;;;;;;;;16.71;53.81;100357.00;5055832;28;1213;-58
2023/08/28 03:07:47;;;;;;;;;;;;;;;16.69;53.67;100357.28;5058178;28;1114;-58
2023/08/28 03:10:12;;;;;;;;;;;;;;;16.56;53.77;100349.69;5058269;28;1126;-59
2023/08/28 03:12:38;;;;;;;;;;;;;;;16.57;53.60;100351.31;5038564;28;2347;-61
2023/08/28 03:15:03;;;;;;;;;;;;;;;16.60;53.51;100356.25;5069820;28;1127;-54
2023/08/28 03:17:29;;;;;;;;;;;;;;;16.53;53.62;100344.75;5072910;28;945;-54
2023/08/28 03:19:55;;;;;;;;;;;;;;;16.52;53.39;100348.59;5058496;28;1079;-58
2023/08/28 03:22:20;;;;;;;;;;;;;;;16.56;53.27;100342.28;5056665;28;1012;-55
2023/08/28 03:24:47;;;;;;;;;;;;;;;16.50;53.20;100345.34;5055471;28;1104;-57
2023/08/28 03:27:12;;;;;;;;;;;;;;;16.46;53.49;100345.06;5076236;28;1178;-54
2023/08/28 03:29:38;;;;;;;;;;;;;;;16.41;53.51;100340.44;5071215;28;1042;-54
2023/08/28 03:32:04;;;;;;;;;;;;;;;17.20;54.32;100342.38;5055796;28;1979;-54
2023/08/28 03:34:30;;;;;;;;;;;;;;;17.39;54.84;100345.22;5038149;28;1154;-55
2023/08/28 03:36:55;;;;;;;;;;;;;;;17.07;54.86;100349.34;5049156;28;1604;-54
2023/08/28 03:39:21;;;;;;;;;;;;;;;16.88;54.58;100342.88;5058279;28;1035;-53
2023/08/28 03:41:47;;;;;;;;;;;;;;;16.83;54.20;100351.97;5076637;28;935;-53
2023/08/28 03:44:12;;;;;;;;;;;;;;;16.77;54.16;100345.72;5045425;28;1165;-53
2023/08/28 03:46:37;;;;;;;;;;;;;;;16.73;53.76;100341.06;5070449;28;1035;-54
2023/08/28 03:49:03;;;;;;;;;;;;;;;16.73;53.55;100347.38;5066423;28;1149;-54
2023/08/28 03:51:31;;;;;;;;;;;;;;;16.65;53.72;100349.88;5051059;28;1989;-59
2023/08/28 03:53:57;;;;;;;;;;;;;;;16.55;53.82;100348.03;5077542;28;834;-58
2023/08/28 03:56:23;;;;;;;;;;;;;;;16.55;53.64;100365.34;5061249;28;1095;-58
2023/08/28 03:58:49;;;;;;;;;;;;;;;16.51;53.43;100367.00;5053203;28;1103;-54
2023/08/28 04:01:14;;;;;;;;;;;;;;;16.49;53.46;100357.41;5059595;28;1603;-57
2023/08/28 04:03:40;;;;;;;;;;;;;;;16.49;53.40;100368.38;5054056;28;1348;-56
2023/08/28 04:06:06;;;;;;;;;;;;;;;16.43;53.79;100362.09;5055929;28;900;-56
2023/08/28 04:08:31;;;;;;;;;;;;;;;16.48;53.48;100364.00;5059078;28;1167;-54
2023/08/28 04:10:58;;;;;;;;;;;;;;;16.43;53.47;100359.34;5059510;28;2314;-53
2023/08/28 04:13:24;;;;;;;;;;;;;;;16.42;53.60;100363.19;5060935;28;2161;-54
2023/08/28 04:15:49;;;;;;;;;;;;;;;16.45;53.32;100365.38;5060680;28;1892;-56
2023/08/28 04:18:15;;;;;;;;;;;;;;;16.41;53.45;100359.66;5076576;28;2170;-56
2023/08/28 04:20:41;;;;;;;;;;;;;;;16.90;54.17;100374.47;5058464;28;2393;-56
2023/08/28 04:23:07;;;;;;;;;;;;;;;17.55;54.61;100364.31;5049009;28;1860;-56
2023/08/28 04:25:33;;;;;;;;;;;;;;;17.07;55.07;100360.34;5078703;28;2037;-56
2023/08/28 04:27:59;;;;;;;;;;;;;;;16.87;54.94;100366.78;5073926;28;1105;-54
2023/08/28 04:30:25;;;;;;;;;;;;;;;16.81;54.69;100362.41;5060460;28;1384;-56
2023/08/28 04:32:51;;;;;;;;;;;;;;;16.77;54.50;100366.84;5078763;28;1897;-53
2023/08/28 04:35:16;;;;;;;;;;;;;;;16.67;54.35;100353.19;5060951;28;1217;-55
2023/08/28 04:37:42;;;;;;;;;;;;;;;16.71;53.81;100360.56;5043499;28;1110;-57
2023/08/28 04:40:08;;;;;;;;;;;;;;;16.62;54.20;100362.28;5051223;28;1208;-58
2023/08/28 04:42:33;;;;;;;;;;;;;;;16.68;53.66;100357.56;5078312;28;1044;-56
2023/08/28 04:45:01;;;;;;;;;;;;;;;17.68;54.49;100349.88;5050541;28;1217;-54
2023/08/28 04:47:26;;;;;;;;;;;;;;;16.96;54.61;100347.78;5044003;28;1461;-56
2023/08/28 04:49:53;;;;;;;;;;;;;;;16.69;52.38;100346.31;5060528;28;1055;-60
2023/08/28 04:52:19;;;;;;;;;;;;;;;16.90;52.21;100347.00;5063610;28;1906;-55
2023/08/28 04:54:45;;;;;;;;;;;;;;;17.43;53.74;100343.53;5078177;28;1138;-54
2023/08/28 04:57:10;;;;;;;;;;;;;;;16.99;52.40;100349.97;5077921;28;2198;-54
2023/08/28 04:59:36;;;;;;;;;;;;;;;16.96;50.75;100342.31;5078401;28;1051;-54
2023/08/28 05:02:01;;;;;;;;;;;;;;;16.95;50.41;100350.81;5064898;28;1098;-56
2023/08/28 05:04:27;;;;;;;;;;;;;;;17.35;51.36;100357.06;5051207;28;1039;-55
2023/08/28 05:06:52;;;;;;;;;;;;;;;17.08;50.60;100356.50;5074118;28;983;-55
2023/08/28 05:09:18;;;;;;;;;;;;;;;17.00;49.53;100359.84;5033540;28;1162;-55
2023/08/28 05:11:45;;;;;;;;;;;;;;;17.00;48.58;100357.09;5046369;28;1906;-57
2023/08/28 05:14:10;;;;;;;;;;;;;;;16.92;48.37;100354.97;5070068;28;1123;-55
2023/08/28 05:16:37;;;;;;;;;;;;;;;17.39;49.10;100344.38;5042000;28;1320;-55
2023/08/28 05:19:03;;;;;;;;;;;;;;;17.37;50.13;100346.63;5069952;28;1189;-59
2023/08/28 05:21:28;;;;;;;;;;;;;;;17.22;49.52;100339.31;5070916;28;1039;-56
2023/08/28 05:23:54;;;;;;;;;;;;;;;17.09;48.73;100341.63;5066097;28;1099;-62
2023/08/28 05:26:19;;;;;;;;;;;;;;;17.10;48.06;100339.72;5053222;28;2371;-56
2023/08/28 05:28:45;;;;;;;;;;;;;;;18.05;50.13;100342.88;5060184;28;1115;-56
2023/08/28 05:31:10;;;;;;;;;;;;;;;17.47;50.11;100337.47;5074504;28;1097;-55
2023/08/28 05:33:36;;;;;;;;;;;;;;;17.42;48.79;100330.91;5039700;28;1906;-56
2023/08/28 05:36:03;;;;;;;;;;;;;;;17.20;48.41;100330.56;5052967;28;1159;-55
2023/08/28 05:38:28;;;;;;;;;;;;;;;17.32;47.57;100341.16;5067760;28;1036;-56
2023/08/28 05:40:54;;;;;;;;;;;;;;;17.21;47.29;100335.78;5063617;28;1095;-56
2023/08/28 05:43:19;;;;;;;;;;;;;;;17.23;47.09;100339.03;5059537;28;1202;-55
2023/08/28 05:45:46;;;;;;;;;;;;;;;18.17;48.82;100336.94;5042777;28;1320;-56
2023/08/28 05:48:11;;;;;;;;;;;;;;;17.61;49.21;100343.91;5050190;28;1086;-55
2023/08/28 05:50:39;;;;;;;;;;;;;;;17.39;48.61;100336.97;5055625;28;1159;-56
2023/08/28 05:53:06;;;;;;;;;;;;;;;17.42;47.83;100341.91;5044984;28;1973;-55
2023/08/28 05:55:32;;;;;;;;;;;;;;;17.40;47.30;100351.53;5049555;28;2453;-56
2023/08/28 05:57:57;;;;;;;;;;;;;;;17.28;46.99;100355.47;5063694;28;1196;-55
2023/08/28 06:00:23;;;;;;;;;;;;;;;17.25;46.72;100363.47;5045595;28;1274;-55
2023/08/28 06:02:49;;;;;;;;;;;;;;;17.31;46.52;100362.34;5039771;28;1085;-55
2023/08/28 06:05:14;;;;;;;;;;;;;;;17.26;46.52;100354.13;5041591;28;1058;-55
2023/08/28 06:07:40;;;;;;;;;;;;;;;17.27;46.19;100353.03;5038368;28;1107;-55
2023/08/28 06:10:07;;;;;;;;;;;;;;;17.20;46.28;100355.28;5046489;28;1155;-56
2023/08/28 06:12:34;;;;;;;;;;;;;;;17.27;45.90;100351.09;5037978;28;1914;-55
2023/08/28 06:14:59;;;;;;;;;;;;;;;17.19;46.10;100359.13;5055411;28;1087;-56
2023/08/28 06:17:25;;;;;;;;;;;;;;;17.20;45.83;100360.78;5050174;28;1291;-53
2023/08/28 06:19:51;;;;;;;;;;;;;;;17.14;46.02;100362.75;5035767;28;1347;-56
2023/08/28 06:22:16;;;;;;;;;;;;;;;18.20;47.68;100352.91;5052647;28;1020;-55
2023/08/28 06:24:42;;;;;;;;;;;;;;;17.72;47.93;100367.41;5056623;28;963;-56
2023/08/28 06:27:07;;;;;;;;;;;;;;;17.56;47.68;100360.47;5039421;28;2789;-56
2023/08/28 06:29:33;;;;;;;;;;;;;;;17.53;47.04;100363.78;5041578;28;1146;-56
2023/08/28 06:31:59;;;;;;;;;;;;;;;17.47;46.92;100360.25;5045262;28;1914;-55
2023/08/28 06:34:24;;;;;;;;;;;;;;;17.41;46.68;100364.97;5036361;28;1134;-55
2023/08/28 06:36:51;;;;;;;;;;;;;;;17.40;46.35;100354.28;5046986;28;976;-54
2023/08/28 06:39:18;;;;;;;;;;;;;;;17.40;46.29;100360.63;5048697;28;1197;-55
2023/08/28 06:41:43;;;;;;;;;;;;;;;17.29;46.44;100359.03;5052104;28;1000;-55
2023/08/28 06:44:09;;;;;;;;;;;;;;;17.35;45.99;100357.91;5054734;28;1988;-55
2023/08/28 06:46:36;;;;;;;;;;;;;;;17.36;46.02;100347.72;5057872;28;1370;-52
2023/08/28 06:49:02;;;;;;;;;;;;;;;17.36;45.85;100354.06;5055158;28;1125;-55
2023/08/28 06:51:28;;;;;;;;;;;;;;;17.26;46.04;100340.38;5050892;28;1094;-56
2023/08/28 06:53:53;;;;;;;;;;;;;;;17.28;45.98;100351.94;5058337;28;1976;-56
2023/08/28 06:56:19;;;;;;;;;;;;;;;17.32;45.95;100358.50;5066036;28;2217;-56
2023/08/28 06:58:45;;;;;;;;;;;;;;;17.30;46.09;100363.44;5076105;28;1122;-54
2023/08/28 07:01:10;;;;;;;;;;;;;;;17.39;45.69;100369.97;5049054;28;1126;-54
2023/08/28 07:03:35;;;;;;;;;;;;;;;17.38;45.64;100362.81;5075996;28;1189;-56
2023/08/28 07:06:01;;;;;;;;;;;;;;;17.27;45.94;100366.78;5076199;28;1297;-56
2023/08/28 07:08:26;;;;;;;;;;;;;;;17.37;45.88;100366.66;5076066;28;1304;-55
2023/08/28 07:10:52;;;;;;;;;;;;;;;17.29;46.11;100364.53;5075931;28;1268;-55
2023/08/28 07:13:17;;;;;;;;;;;;;;;17.34;45.79;100361.75;5075635;28;1971;-57
2023/08/28 07:15:43;;;;;;;;;;;;;;;17.40;45.57;100366.13;5074982;28;1260;-57
2023/08/28 07:18:09;;;;;;;;;;;;;;;17.43;45.48;100364.69;5075312;28;1276;-56
2023/08/28 07:20:35;;;;;;;;;;;;;;;17.33;45.81;100364.78;5057806;28;1893;-56
2023/08/28 07:23:00;;;;;;;;;;;;;;;17.30;45.96;100368.13;5075662;28;1368;-56
2023/08/28 07:25:27;;;;;;;;;;;;;;;17.39;45.82;100366.38;5075890;28;1867;-57
2023/08/28 07:27:53;;;;;;;;;;;;;;;17.39;45.88;100366.38;5054792;28;1022;-55
2023/08/28 07:30:18;;;;;;;;;;;;;;;17.36;45.67;100354.06;5065295;28;1074;-55
2023/08/28 07:32:44;;;;;;;;;;;;;;;17.38;45.84;100356.50;5059122;28;1906;-54
2023/08/28 07:35:09;;;;;;;;;;;;;;;17.44;45.82;100367.16;5065001;28;1048;-52
2023/08/28 07:37:35;;;;;;;;;;;;;;;17.35;45.79;100363.41;5059337;28;1070;-56
2023/08/28 07:40:03;;;;;;;;;;;;;;;17.35;46.13;100370.81;5055651;28;1035;-56
2023/08/28 07:42:28;;;;;;;;;;;;;;;17.44;45.61;100360.84;5046247;28;1235;-52
2023/08/28 07:44:54;;;;;;;;;;;;;;;17.32;46.16;100364.00;5066195;28;1078;-55
2023/08/28 07:47:20;;;;;;;;;;;;;;;17.40;45.93;100360.63;5055843;28;1151;-54
2023/08/28 07:49:45;;;;;;;;;;;;;;;17.45;45.66;100371.53;5037223;28;1154;-55
2023/08/28 07:52:11;;;;;;;;;;;;;;;17.44;45.85;100367.16;5068642;28;1980;-55
2023/08/28 07:54:36;;;;;;;;;;;;;;;17.44;45.76;100361.66;5064088;28;1035;-56
2023/08/28 07:57:03;;;;;;;;;;;;;;;17.40;46.00;100370.78;5059640;28;1874;-53
2023/08/28 07:59:29;;;;;;;;;;;;;;;17.50;45.89;100369.84;5065634;28;1084;-55
2023/08/28 08:01:55;;;;;;;;;;;;;;;17.46;45.95;100364.13;5058903;28;1023;-52
2023/08/28 08:04:21;;;;;;;;;;;;;;;17.49;45.84;100369.03;5065409;28;1118;-54
2023/08/28 08:06:46;;;;;;;;;;;;;;;17.52;45.83;100368.47;5068299;28;1169;-56
2023/08/28 08:09:12;;;;;;;;;;;;;;;17.57;45.59;100375.81;5065679;28;1155;-54
2023/08/28 08:11:37;;;;;;;;;;;;;;;17.51;45.70;100371.50;5068878;28;1033;-54
2023/08/28 08:14:03;;;;;;;;;;;;;;;17.51;46.00;100372.31;5056068;28;1917;-54
2023/08/28 08:16:29;;;;;;;;;;;;;;;17.48;46.02;100369.34;5054922;28;1161;-56
2023/08/28 08:18:54;;;;;;;;;;;;;;;17.56;45.72;100365.97;5055240;28;1085;-55
2023/08/28 08:21:20;;;;;;;;;;;;;;;17.52;45.94;100365.72;5071665;28;1107;-55
2023/08/28 08:23:45;;;;;;;;;;;;;;;17.60;45.78;100347.78;5075482;28;1233;-55
2023/08/28 08:26:11;;;;;;;;;;;;;;;17.56;45.79;100354.97;5068436;28;1848;-54
2023/08/28 08:28:38;;;;;;;;;;;;;;;17.56;45.85;100357.72;5068690;28;1102;-54
2023/08/28 08:31:03;;;;;;;;;;;;;;;17.64;45.60;100343.31;5069644;28;1142;-54
2023/08/28 08:33:29;;;;;;;;;;;;;;;17.56;45.82;100352.22;5078427;28;1985;-58
2023/08/28 08:35:54;;;;;;;;;;;;;;;17.55;46.08;100350.56;5060528;28;1371;-56
2023/08/28 08:38:20;;;;;;;;;;;;;;;17.58;46.08;100347.25;5077727;28;1062;-54
2023/08/28 08:40:46;;;;;;;;;;;;;;;17.64;45.96;100339.75;5072649;28;1026;-56
2023/08/28 08:43:12;;;;;;;;;;;;;;;17.69;45.63;100345.22;5051510;28;1248;-56
2023/08/28 08:45:37;;;;;;;;;;;;;;;17.63;45.82;100336.19;5072672;28;1149;-57
2023/08/28 08:48:05;;;;;;;;;;;;;;;17.73;45.57;100336.06;5057942;28;1062;-57
2023/08/28 08:50:31;;;;;;;;;;;;;;;17.71;45.77;100338.31;5071393;28;1028;-58
2023/08/28 08:52:58;;;;;;;;;;;;;;;17.69;45.99;100340.50;5052752;28;1905;-56
2023/08/28 08:55:25;;;;;;;;;;;;;;;17.66;46.08;100340.28;5069656;28;2407;-57
2023/08/28 08:57:52;;;;;;;;;;;;;;;17.67;46.21;100341.91;5077600;28;1054;-55
2023/08/28 09:00:18;;;;;;;;;;;;;;;17.72;45.90;100330.88;5058612;28;1154;-54
2023/08/28 09:02:43;;;;;;;;;;;;;;;17.61;46.04;100332.91;5040805;28;1055;-49
2023/08/28 09:05:09;;;;;;;;;;;;;;;17.79;45.93;100337.66;5057869;28;1130;-51
2023/08/28 09:07:35;;;;;;;;;;;;;;;17.74;45.98;100337.72;5071153;28;1067;-56
2023/08/28 09:10:02;;;;;;;;;;;;;;;17.81;45.95;100339.28;5064781;28;1034;-53
2023/08/28 09:12:28;;;;;;;;;;;;;;;17.83;45.85;100342.59;5064399;28;1978;-57
2023/08/28 09:14:53;;;;;;;;;;;;;;;17.82;45.81;100338.19;5071490;28;1072;-57
2023/08/28 09:17:19;;;;;;;;;;;;;;;17.79;45.91;100351.41;5070981;28;1032;-55
2023/08/28 09:19:45;;;;;;;;;;;;;;;17.79;45.81;100337.66;5052170;28;1261;-55
2023/08/28 09:22:10;;;;;;;;;;;;;;;17.72;46.27;100339.94;5076135;28;1209;-56
2023/08/28 09:24:36;;;;;;;;;;;;;;;17.74;45.96;100331.38;5066236;28;1051;-52
2023/08/28 09:27:03;;;;;;;;;;;;;;;17.84;46.03;100333.19;5062358;28;2535;-51
2023/08/28 09:29:28;;;;;;;;;;;;;;;17.82;46.12;100327.19;5059953;28;1240;-57
2023/08/28 09:32:03;;;;;;;;;;;;;;;17.86;45.94;100326.28;5077178;28;1988;-55
2023/08/28 09:34:38;;;;;;;;;;;;;;;17.84;45.91;100322.19;5073998;28;1035;-56
2023/08/28 09:37:07;;;;;;;;;;;;;;;17.77;46.06;100315.13;5057536;28;1043;-57
2023/08/28 09:39:32;;;;;;;;;;;;;;;17.85;45.99;100321.09;5056905;28;1195;-57
2023/08/28 09:41:57;;;;;;;;;;;;;;;17.84;45.99;100324.94;5057223;28;1083;-50
2023/08/28 09:44:24;;;;;;;;;;;;;;;17.90;45.74;100321.03;5075393;28;1086;-55
2023/08/28 09:46:50;;;;;;;;;;;;;;;17.90;45.74;100319.09;5077143;28;1062;-55
2023/08/28 09:49:16;;;;;;;;;;;;;;;17.85;46.06;100318.34;5058562;28;1205;-52
2023/08/28 09:51:45;;;;;;;;;;;;;;;17.94;45.86;100308.38;5057338;28;1286;-54
2023/08/28 09:54:11;;;;;;;;;;;;;;;17.88;45.96;100317.75;5070481;28;1075;-55
2023/08/28 09:56:36;;;;;;;;;;;;;;;17.89;46.04;100316.63;5062153;28;1831;-54
2023/08/28 09:59:03;;;;;;;;;;;;;;;17.93;45.94;100317.72;5057571;28;1070;-54
2023/08/28 10:01:32;;;;;;;;;;;;;;;17.89;46.08;100317.47;5070153;28;1079;-57
2023/08/28 10:03:58;;;;;;;;;;;;;;;17.93;46.05;100318.53;5063337;28;1133;-51
2023/08/28 10:06:25;;;;;;;;;;;;;;;17.93;46.07;100313.03;5063587;28;1190;-55
2023/08/28 10:08:50;;;;;;;;;;;;;;;17.88;46.08;100313.09;5075260;28;1433;-58
2023/08/28 10:11:16;;;;;;;;;;;;;;;17.96;46.06;100311.63;5045634;28;1051;-54
2023/08/28 10:13:41;;;;;;;;;;;;;;;17.95;46.10;100312.75;5070100;28;1914;-53
2023/08/28 10:16:09;;;;;;;;;;;;;;;18.03;45.89;100309.34;5052250;28;1047;-54
2023/08/28 10:18:36;;;;;;;;;;;;;;;17.93;45.96;100307.53;5069935;28;1079;-52
2023/08/28 10:21:01;;;;;;;;;;;;;;;17.97;45.92;100307.78;5057620;28;873;-55
2023/08/28 10:23:27;;;;;;;;;;;;;;;17.96;46.05;100306.13;5051817;28;1067;-55
2023/08/28 10:25:55;;;;;;;;;;;;;;;17.97;46.10;100302.28;5062777;28;2287;-53
2023/08/28 10:28:21;;;;;;;;;;;;;;;17.98;45.91;100292.91;5069378;28;1138;-56
2023/08/28 10:30:48;;;;;;;;;;;;;;;18.01;46.09;100283.25;5070082;28;1058;-55
2023/08/28 10:33:14;;;;;;;;;;;;;;;17.99;46.04;100286.28;5056520;28;1905;-52
2023/08/28 10:35:42;;;;;;;;;;;;;;;18.01;46.02;100280.50;5056107;28;1127;-54
2023/08/28 10:38:08;;;;;;;;;;;;;;;18.07;45.83;100282.88;5063967;28;1127;-56
2023/08/28 10:40:34;;;;;;;;;;;;;;;17.95;46.33;100282.50;5044798;28;1016;-57
2023/08/28 10:42:59;;;;;;;;;;;;;;;18.00;46.07;100285.16;5057699;28;1102;-57
2023/08/28 10:45:25;;;;;;;;;;;;;;;17.97;46.00;100288.50;5076367;28;1427;-58
2023/08/28 10:47:51;;;;;;;;;;;;;;;18.03;46.15;100279.06;5075188;28;1212;-55
2023/08/28 10:50:16;;;;;;;;;;;;;;;18.07;46.00;100277.38;5073739;28;1215;-59
2023/08/28 10:52:42;;;;;;;;;;;;;;;18.03;46.22;100279.06;5073153;28;1910;-55
2023/08/28 10:55:09;;;;;;;;;;;;;;;18.07;46.05;100280.13;5075388;28;1264;-55
2023/08/28 10:57:39;;;;;;;;;;;;;;;17.90;46.17;100277.84;5055198;28;1071;-55
2023/08/28 11:00:14;;;;;;;;;;;;;;;18.12;45.67;100268.25;5061056;28;1055;-56
2023/08/28 11:02:58;;;;;;;;;;;;;;;17.97;46.16;100265.69;5057190;28;1091;-55
2023/08/28 11:05:24;;;;;;;;;;;;;;;18.09;45.92;100266.91;5070245;28;1035;-56
2023/08/28 11:07:50;;;;;;;;;;;;;;;18.09;46.02;100264.16;5061765;28;1107;-57
2023/08/28 11:10:19;;;;;;;;;;;;;;;18.16;45.88;100265.69;5047565;28;1098;-58
2023/08/28 11:12:53;;;;;;;;;;;;;;;18.08;45.84;100265.25;5068686;28;1918;-56
2023/08/28 11:15:28;;;;;;;;;;;;;;;18.13;45.79;100256.94;5070057;28;1139;-55
2023/08/28 11:18:32;;;;;;;;;;;;;;;18.15;45.68;100258.59;5062299;28;1027;-54
2023/08/28 11:20:59;;;;;;;;;;;;;;;18.20;45.60;100250.25;4960034;28;1356;-55
2023/08/28 11:23:26;;;;;;;;;;;;;;;18.11;45.53;100253.66;4964414;28;1167;-58
2023/08/28 11:25:52;;;;;;;;;;;;;;;18.07;45.79;100252.59;5023706;28;2399;-55
2023/08/28 11:28:29;;;;;;;;;;;;;;;18.12;45.87;100246.22;5076074;28;1438;-55
2023/08/28 11:30:58;;;;;;;;;;;;;;;18.16;45.64;100243.69;5075663;28;1157;-50
2023/08/28 11:33:24;;;;;;;;;;;;;;;18.10;45.79;100235.53;5066128;28;1982;-53
2023/08/28 11:35:49;;;;;;;;;;;;;;;18.15;45.70;100236.56;5075577;28;1011;-54
2023/08/28 11:38:15;;;;;;;;;;;;;;;18.09;45.62;100247.63;5041232;28;1028;-57
2023/08/28 11:40:41;;;;;;;;;;;;;;;18.17;45.50;100246.13;5057970;28;1179;-55
2023/08/28 11:43:06;;;;;;;;;;;;;;;18.20;45.67;100233.72;5061920;28;1078;-55
2023/08/28 11:45:32;;;;;;;;;;;;;;;18.15;45.71;100242.06;5075135;28;929;-54
2023/08/28 11:48:01;;;;;;;;;;;;;;;18.23;45.55;100233.97;5061698;28;1186;-56
2023/08/28 11:50:27;;;;;;;;;;;;;;;18.22;45.42;100240.56;5062522;28;1115;-58
2023/08/28 11:52:52;;;;;;;;;;;;;;;18.20;45.62;100233.72;5075136;28;1909;-55
2023/08/28 11:55:19;;;;;;;;;;;;;;;18.12;45.69;100236.03;5075664;28;2384;-60
2023/08/28 11:57:44;;;;;;;;;;;;;;;18.16;45.60;100243.69;5070200;28;983;-51
2023/08/28 12:00:14;;;;;;;;;;;;;;;18.22;45.61;100231.50;5073752;28;1246;-54
2023/08/28 12:02:41;;;;;;;;;;;;;;;18.13;45.80;100234.94;5073233;28;1394;-55
2023/08/28 12:05:07;;;;;;;;;;;;;;;18.15;45.50;100234.63;5061351;28;1229;-56
2023/08/28 12:07:32;;;;;;;;;;;;;;;18.05;45.51;100224.59;5077643;28;1234;-57
2023/08/28 12:09:58;;;;;;;;;;;;;;;18.08;45.64;100231.44;5058956;28;1000;-55
2023/08/28 12:12:24;;;;;;;;;;;;;;;18.11;45.86;100237.16;5060822;28;1993;-58
2023/08/28 12:14:49;;;;;;;;;;;;;;;18.19;45.51;100232.91;5060943;28;1406;-57
2023/08/28 12:17:20;;;;;;;;;;;;;;;18.15;45.65;100231.06;5078194;28;1409;-56
2023/08/28 12:19:46;;;;;;;;;;;;;;;18.12;45.60;100232.47;5077030;28;1229;-56
2023/08/28 12:22:12;;;;;;;;;;;;;;;18.19;45.61;100226.56;5058482;28;1429;-55
2023/08/28 12:24:44;;;;;;;;;;;;;;;18.11;45.82;100237.16;5078130;28;1370;-56
2023/08/28 12:27:10;;;;;;;;;;;;;;;18.10;45.66;100230.03;5062229;28;2613;-55
2023/08/28 12:29:36;;;;;;;;;;;;;;;18.12;45.81;100227.78;5058459;28;1225;-54
2023/08/28 12:32:08;;;;;;;;;;;;;;;18.22;45.46;100231.50;5061678;28;1909;-53
2023/08/28 12:34:33;;;;;;;;;;;;;;;18.18;45.56;100224.97;5073975;28;1111;-53
2023/08/28 12:37:03;;;;;;;;;;;;;;;18.11;45.57;100222.56;5070310;28;1077;-55
2023/08/28 12:39:28;;;;;;;;;;;;;;;18.06;45.77;100212.47;5078819;28;1186;-52
2023/08/28 12:41:54;;;;;;;;;;;;;;;17.99;45.80;100212.00;5078809;28;1209;-54
2023/08/28 12:44:20;;;;;;;;;;;;;;;18.06;45.66;100212.47;5055731;28;1190;-59